Time;durP1;ratioP1;P1;durP2;ratioP2;P2;SDS_P1;SDS_P2;PMS_P1;PMS_P2;Temp;Humidity;BMP_temperature;BMP_pressure;BME280_temperature;BME280_humidity;BME280_pressure;Samples;Min_cycle;Max_cycle;Signal;HPM_P1;HPM_P2
2023/02/08 00:01:26;;;;;;;36.73;21.00;;;-1.80;99.90;;;;;;6217251;23;39395;-80
2023/02/08 00:03:52;;;;;;;41.67;21.90;;;-1.90;99.90;;;;;;6193520;23;38101;-78
2023/02/08 00:06:19;;;;;;;33.40;19.70;;;-1.90;99.90;;;;;;6217894;23;39025;-77
2023/02/08 00:08:45;;;;;;;34.93;20.67;;;-1.90;99.90;;;;;;6183222;23;38068;-78
2023/02/08 00:11:11;;;;;;;36.93;21.27;;;-1.90;99.90;;;;;;6191085;23;37230;-77
2023/02/08 00:13:39;;;;;;;34.00;21.30;;;-1.90;99.90;;;;;;6217804;23;37499;-81
2023/02/08 00:16:06;;;;;;;32.70;19.33;;;-1.90;99.90;;;;;;6191131;23;37946;-81
2023/02/08 00:18:32;;;;;;;32.90;19.97;;;-1.90;99.90;;;;;;6187653;23;39379;-78
2023/02/08 00:20:58;;;;;;;38.97;22.33;;;-1.90;99.90;;;;;;6190754;23;39977;-77
2023/02/08 00:23:28;;;;;;;35.53;19.60;;;-1.90;99.90;;;;;;6185286;23;36930;-78
2023/02/08 00:25:54;;;;;;;37.90;21.17;;;-1.90;99.90;;;;;;6207212;23;38954;-78
2023/02/08 00:28:20;;;;;;;38.40;21.30;;;-1.90;99.90;;;;;;6179810;23;38625;-78
2023/02/08 00:30:47;;;;;;;40.50;23.00;;;-1.90;99.90;;;;;;6171563;23;39823;-79
2023/02/08 00:33:13;;;;;;;43.87;21.77;;;-2.00;99.90;;;;;;6209328;22;37523;-78
2023/02/08 00:35:41;;;;;;;36.43;21.53;;;-1.90;99.90;;;;;;6186448;23;39668;-79
2023/02/08 00:38:07;;;;;;;34.33;20.77;;;-2.00;99.90;;;;;;6182896;23;39097;-78
2023/02/08 00:40:34;;;;;;;39.00;21.27;;;-2.00;99.90;;;;;;6191841;23;37229;-78
2023/02/08 00:43:00;;;;;;;37.37;20.50;;;-2.00;99.90;;;;;;6190936;23;36554;-78
2023/02/08 00:45:26;;;;;;;36.00;20.93;;;-2.00;99.90;;;;;;6212523;23;38860;-78
2023/02/08 00:47:52;;;;;;;39.20;20.73;;;-2.00;99.90;;;;;;6191863;23;37645;-79
2023/02/08 00:50:18;;;;;;;36.13;20.53;;;-2.10;99.90;;;;;;6214139;23;38519;-78
2023/02/08 00:52:44;;;;;;;37.97;21.90;;;-2.10;99.90;;;;;;6215389;23;37982;-78
2023/02/08 00:55:11;;;;;;;34.87;19.10;;;-2.10;99.90;;;;;;6188546;23;39380;-81
2023/02/08 00:57:37;;;;;;;34.70;20.30;;;-2.10;99.90;;;;;;6217172;23;39197;-79
2023/02/08 01:00:05;;;;;;;34.17;19.87;;;-2.10;99.90;;;;;;6220194;23;41206;-78
2023/02/08 01:02:32;;;;;;;39.43;21.03;;;-2.10;99.90;;;;;;6217745;23;37610;-77
2023/02/08 01:04:58;;;;;;;41.00;23.10;;;-2.10;99.90;;;;;;6219144;23;38780;-78
2023/02/08 01:07:24;;;;;;;32.17;18.87;;;-2.10;99.90;;;;;;6215536;23;38726;-78
2023/02/08 01:09:50;;;;;;;37.90;21.00;;;-2.10;99.90;;;;;;6208338;23;39143;-78
2023/02/08 01:12:16;;;;;;;38.50;22.93;;;-2.10;99.90;;;;;;6174682;23;38795;-78
2023/02/08 01:14:42;;;;;;;43.93;22.80;;;-2.10;99.90;;;;;;6172176;23;39052;-78
2023/02/08 01:17:08;;;;;;;40.17;22.00;;;-2.10;99.90;;;;;;6208422;23;39989;-79
2023/02/08 01:19:35;;;;;;;40.87;22.40;;;-2.10;99.90;;;;;;6209502;23;38037;-78
2023/02/08 01:22:02;;;;;;;34.23;21.20;;;-2.20;99.90;;;;;;6214521;23;36081;-79
2023/02/08 01:24:28;;;;;;;40.00;21.33;;;-2.20;99.90;;;;;;6187837;23;49011;-80
2023/02/08 01:26:54;;;;;;;39.63;21.30;;;-2.20;99.90;;;;;;6186450;23;37158;-78
2023/02/08 01:29:20;;;;;;;33.20;20.37;;;-2.20;99.90;;;;;;6187248;23;38242;-78
2023/02/08 01:31:46;;;;;;;38.87;22.00;;;-2.20;99.90;;;;;;6183111;23;37972;-78
2023/02/08 01:34:13;;;;;;;41.33;22.23;;;-2.20;99.90;;;;;;6212034;23;37531;-79
2023/02/08 01:36:39;;;;;;;34.80;20.37;;;-2.20;99.90;;;;;;6213984;23;37687;-79
2023/02/08 01:39:06;;;;;;;35.43;22.03;;;-2.30;99.90;;;;;;6179525;23;38310;-79
2023/02/08 01:41:39;;;;;;;40.20;21.07;;;-2.30;99.90;;;;;;6188222;23;38390;-79
2023/02/08 01:44:12;;;;;;;39.47;22.77;;;-2.30;99.90;;;;;;6156112;23;38816;-79
2023/02/08 01:46:40;;;;;;;39.28;22.25;;;-2.20;99.90;;;;;;6186463;23;39187;-78
2023/02/08 01:49:22;;;;;;;42.03;22.70;;;-2.30;99.90;;;;;;6151886;23;39688;-78
2023/02/08 01:52:23;;;;;;;47.63;26.83;;;-2.30;99.90;;;;;;6185734;23;39609;-79
2023/02/08 01:55:05;;;;;;;46.77;24.63;;;-2.30;99.90;;;;;;6127343;23;49086;-78
2023/02/08 01:57:32;;;;;;;33.80;19.40;;;-2.30;99.90;;;;;;6179088;23;47148;-79
2023/02/08 02:00:07;;;;;;;40.10;23.70;;;-2.20;99.90;;;;;;6179732;23;39011;-79
2023/02/08 02:02:35;;;;;;;38.33;22.53;;;-2.30;99.90;;;;;;6227742;22;48368;-81
2023/02/08 02:05:02;;;;;;;44.37;23.30;;;-2.30;99.90;;;;;;6240193;22;38515;-81
2023/02/08 02:07:29;;;;;;;39.20;22.20;;;-2.30;99.90;;;;;;6242840;22;37403;-81
2023/02/08 02:10:13;;;;;;;38.30;20.97;;;-2.30;99.90;;;;;;6242697;22;38278;-80
2023/02/08 02:12:41;;;;;;;43.07;22.93;;;-2.30;99.90;;;;;;6242092;22;48564;-80
2023/02/08 02:15:09;;;;;;;37.10;20.63;;;-2.30;99.90;;;;;;6237207;22;37704;-82
2023/02/08 02:17:38;;;;;;;38.77;23.10;;;-2.30;99.90;;;;;;6272740;22;39010;-83
2023/02/08 02:20:13;;;;;;;36.93;21.60;;;-2.40;99.90;;;;;;6242676;22;37696;-80
2023/02/08 02:22:42;;;;;;;42.93;22.43;;;-2.30;99.90;;;;;;6241057;22;36853;-80
2023/02/08 02:25:46;;;;;;;38.10;20.73;;;-2.30;99.90;;;;;;6238830;22;37694;-81
2023/02/08 02:28:58;;;;;;;39.63;21.67;;;-2.30;99.90;;;;;;6267269;22;39877;-81
2023/02/08 02:31:49;;;;;;;42.70;22.60;;;-2.30;99.90;;;;;;6230767;22;37439;-81
2023/02/08 02:34:31;;;;;;;40.47;22.87;;;-2.30;99.90;;;;;;6265429;22;50171;-81
2023/02/08 02:37:12;;;;;;;34.97;20.03;;;-2.30;99.90;;;;;;6241184;22;37630;-80
2023/02/08 02:39:56;;;;;;;41.23;21.87;;;-2.30;99.90;;;;;;6235514;22;47135;-81
2023/02/08 02:45:42;;;;;;;39.83;21.63;;;-2.30;99.90;;;;;;6265940;22;39247;-81
2023/02/08 02:48:31;;;;;;;39.43;21.77;;;-2.40;99.90;;;;;;6233839;22;37891;-81
2023/02/08 02:51:08;;;;;;;39.27;21.77;;;-2.40;99.90;;;;;;6241432;22;38754;-82
2023/02/08 02:53:46;;;;;;;40.90;22.40;;;-2.40;99.90;;;;;;6241436;22;47381;-81
2023/02/08 02:56:17;;;;;;;34.43;21.13;;;-2.50;99.90;;;;;;6238906;22;36357;-82
2023/02/08 02:58:44;;;;;;;38.43;20.83;;;-2.50;99.90;;;;;;6243770;22;38007;-81
2023/02/08 03:01:12;;;;;;;37.53;19.23;;;-2.50;99.90;;;;;;6259058;22;39708;-83
2023/02/08 03:03:39;;;;;;;34.47;20.73;;;-2.50;99.90;;;;;;6269715;22;38433;-81
2023/02/08 03:06:24;;;;;;;37.20;21.80;;;-2.50;99.90;;;;;;6238763;22;36729;-80
2023/02/08 03:09:02;;;;;;;37.50;21.57;;;-2.50;99.90;;;;;;6267721;22;39165;-80
2023/02/08 03:11:33;;;;;;;40.80;23.00;;;-2.50;99.90;;;;;;6237076;22;48249;-81
2023/02/08 03:14:27;;;;;;;38.40;22.83;;;-2.50;99.90;;;;;;6271682;22;39134;-81
2023/02/08 03:17:14;;;;;;;40.17;22.33;;;-2.50;99.90;;;;;;6245321;22;48199;-81
2023/02/08 03:20:05;;;;;;;38.17;21.67;;;-2.50;99.90;;;;;;6263441;22;48188;-80
2023/02/08 03:22:39;;;;;;;39.53;21.40;;;-2.60;99.90;;;;;;6265661;22;47041;-80
2023/02/08 03:25:15;;;;;;;38.00;22.30;;;-2.60;99.90;;;;;;6237305;22;37442;-80
2023/02/08 03:27:54;;;;;;;39.23;21.27;;;-2.60;99.90;;;;;;6242101;22;37178;-79
2023/02/08 03:30:30;;;;;;;38.07;22.13;;;-2.60;99.90;;;;;;6240336;22;38290;-83
2023/02/08 03:32:59;;;;;;;39.57;22.63;;;-2.60;99.90;;;;;;6244503;22;38111;-80
2023/02/08 03:35:39;;;;;;;41.47;21.90;;;-2.70;99.90;;;;;;6240956;22;37498;-82
2023/02/08 03:38:23;;;;;;;36.33;21.37;;;-2.80;99.90;;;;;;6240582;22;36729;-82
2023/02/08 03:40:53;;;;;;;42.40;21.53;;;-2.70;99.90;;;;;;6245309;22;37581;-82
2023/02/08 03:43:32;;;;;;;32.63;19.53;;;-2.80;99.90;;;;;;6268901;22;38759;-82
2023/02/08 03:46:12;;;;;;;36.27;21.67;;;-2.70;99.90;;;;;;6244848;22;37418;-82
2023/02/08 03:48:42;;;;;;;38.17;21.57;;;-2.70;99.90;;;;;;6260767;22;50346;-83
2023/02/08 03:51:09;;;;;;;38.50;21.17;;;-2.70;99.90;;;;;;6240603;22;39237;-82
2023/02/08 03:53:39;;;;;;;38.87;21.20;;;-2.70;99.90;;;;;;6243549;22;38114;-83
2023/02/08 03:56:14;;;;;;;36.50;20.70;;;-2.70;99.90;;;;;;6241757;22;37606;-82
2023/02/08 03:58:48;;;;;;;31.40;18.90;;;-2.80;99.90;;;;;;6243011;22;36219;-83
2023/02/08 04:01:25;;;;;;;39.03;21.23;;;-2.70;99.90;;;;;;6268625;22;39344;-83
2023/02/08 04:03:52;;;;;;;34.43;20.60;;;-2.70;99.90;;;;;;6269185;22;38723;-82
2023/02/08 04:06:20;;;;;;;33.63;20.33;;;-2.70;99.90;;;;;;6239984;22;37926;-83
2023/02/08 04:08:46;;;;;;;35.20;20.57;;;-2.70;99.90;;;;;;6241649;22;38798;-82
2023/02/08 04:11:13;;;;;;;35.23;20.10;;;-2.80;99.90;;;;;;6268492;22;39285;-82
2023/02/08 04:13:39;;;;;;;36.97;20.93;;;-2.80;99.90;;;;;;6269218;22;38734;-83
2023/02/08 04:16:05;;;;;;;35.30;20.73;;;-2.90;99.90;;;;;;6239104;22;36917;-81
2023/02/08 04:18:31;;;;;;;31.77;19.47;;;-3.00;99.90;;;;;;6241350;22;37312;-83
2023/02/08 04:20:57;;;;;;;33.87;20.23;;;-3.00;99.90;;;;;;6266790;22;39178;-83
2023/02/08 04:23:31;;;;;;;34.63;21.33;;;-3.00;99.90;;;;;;6268595;22;38923;-83
2023/02/08 04:25:57;;;;;;;34.67;20.53;;;-2.90;99.90;;;;;;6243760;22;36941;-83
2023/02/08 04:28:23;;;;;;;31.57;19.10;;;-3.00;99.90;;;;;;6242770;22;35912;-83
2023/02/08 04:30:49;;;;;;;35.47;20.50;;;-3.00;99.90;;;;;;6245765;22;37492;-83
2023/02/08 04:33:15;;;;;;;33.00;20.40;;;-3.00;99.90;;;;;;6243310;22;38670;-83
2023/02/08 04:35:42;;;;;;;41.23;22.60;;;-3.00;99.90;;;;;;6272926;22;39051;-84
2023/02/08 04:38:09;;;;;;;42.63;21.50;;;-3.00;99.90;;;;;;6271014;22;36528;-82
2023/02/08 04:40:35;;;;;;;37.90;21.20;;;-3.00;99.90;;;;;;6274801;22;40356;-82
2023/02/08 04:43:01;;;;;;;35.30;18.87;;;-3.00;99.90;;;;;;6247775;22;38394;-83
2023/02/08 04:45:33;;;;;;;37.13;20.60;;;-3.00;99.90;;;;;;6246212;22;48422;-82
2023/02/08 04:48:06;;;;;;;33.08;19.02;;;-3.00;99.90;;;;;;6246597;22;36201;-82
2023/02/08 04:50:33;;;;;;;28.80;17.97;;;-3.10;99.90;;;;;;6271808;22;47327;-83
2023/02/08 04:52:59;;;;;;;33.80;20.37;;;-3.00;99.90;;;;;;6247238;22;38442;-80
2023/02/08 04:55:25;;;;;;;33.00;19.50;;;-3.00;99.90;;;;;;6272812;22;39578;-83
2023/02/08 04:57:51;;;;;;;31.70;18.53;;;-3.00;99.90;;;;;;6247431;22;36510;-82
2023/02/08 05:00:18;;;;;;;33.30;19.17;;;-3.00;99.90;;;;;;6270001;22;39697;-82
2023/02/08 05:02:44;;;;;;;36.27;20.03;;;-3.00;99.90;;;;;;6272661;22;39165;-83
2023/02/08 05:05:11;;;;;;;27.47;18.77;;;-3.00;99.90;;;;;;6242387;22;37246;-82
2023/02/08 05:07:40;;;;;;;33.90;18.30;;;-3.00;99.90;;;;;;6269882;22;37494;-82
2023/02/08 05:10:10;;;;;;;33.60;20.07;;;-3.10;99.90;;;;;;6242462;22;38562;-81
2023/02/08 05:12:36;;;;;;;34.20;18.97;;;-3.10;99.90;;;;;;6270783;22;38059;-83
2023/02/08 05:15:02;;;;;;;33.20;18.80;;;-3.10;99.90;;;;;;6240200;22;37110;-81
2023/02/08 05:17:29;;;;;;;37.93;20.17;;;-3.10;99.90;;;;;;6243322;22;37456;-83
2023/02/08 05:19:56;;;;;;;34.93;20.47;;;-3.10;99.90;;;;;;6243924;22;37669;-82
2023/02/08 05:22:22;;;;;;;35.07;19.33;;;-3.00;99.90;;;;;;6266971;22;39031;-82
2023/02/08 05:24:51;;;;;;;32.20;18.80;;;-3.00;99.90;;;;;;6238793;22;37007;-82
2023/02/08 05:27:17;;;;;;;35.53;20.37;;;-3.10;99.90;;;;;;6264865;22;38040;-83
2023/02/08 05:29:43;;;;;;;36.23;19.60;;;-3.00;99.90;;;;;;6241343;22;37896;-82
2023/02/08 05:32:09;;;;;;;31.07;19.10;;;-3.10;99.90;;;;;;6266192;22;39515;-83
2023/02/08 05:34:36;;;;;;;33.47;20.93;;;-3.10;99.90;;;;;;6217071;22;37142;-82
2023/02/08 05:37:13;;;;;;;35.63;19.77;;;-3.10;99.90;;;;;;6269338;22;38137;-81
2023/02/08 05:39:39;;;;;;;33.23;20.23;;;-3.10;99.90;;;;;;6272374;22;38169;-82
2023/02/08 05:42:06;;;;;;;34.47;20.40;;;-3.20;99.90;;;;;;6270621;22;40064;-82
2023/02/08 05:44:32;;;;;;;35.53;20.77;;;-3.20;99.90;;;;;;6242648;22;36763;-82
2023/02/08 05:46:58;;;;;;;31.10;18.43;;;-3.20;99.90;;;;;;6239954;22;36690;-82
2023/02/08 05:49:24;;;;;;;29.90;17.40;;;-3.20;99.90;;;;;;6267651;22;40081;-83
2023/02/08 05:51:50;;;;;;;33.77;19.00;;;-3.20;99.90;;;;;;6272421;22;39389;-82
2023/02/08 05:54:25;;;;;;;31.03;18.60;;;-3.20;99.90;;;;;;6272728;22;39182;-81
2023/02/08 05:56:51;;;;;;;34.07;19.73;;;-3.30;99.90;;;;;;6231999;22;37504;-80
2023/02/08 05:59:17;;;;;;;33.07;19.73;;;-3.30;99.90;;;;;;6222110;22;39337;-80
2023/02/08 06:01:43;;;;;;;32.07;18.63;;;-3.40;99.90;;;;;;6229453;22;39498;-80
2023/02/08 06:04:09;;;;;;;32.53;19.23;;;-3.40;99.90;;;;;;6229350;22;37794;-80
2023/02/08 06:06:36;;;;;;;36.40;21.67;;;-3.40;99.90;;;;;;6250897;22;37431;-80
2023/02/08 06:09:03;;;;;;;35.20;19.63;;;-3.30;99.90;;;;;;6251980;22;39072;-82
2023/02/08 06:11:29;;;;;;;33.57;19.03;;;-3.30;99.90;;;;;;6253207;22;39937;-80
2023/02/08 06:13:55;;;;;;;35.73;20.33;;;-3.30;99.90;;;;;;6257090;22;38831;-80
2023/02/08 06:16:22;;;;;;;34.50;20.50;;;-3.20;99.90;;;;;;6223781;22;37262;-80
2023/02/08 06:18:48;;;;;;;33.53;18.67;;;-3.30;99.90;;;;;;6225248;22;37943;-80
2023/02/08 06:21:14;;;;;;;33.10;18.73;;;-3.30;99.90;;;;;;6220874;22;37489;-80
2023/02/08 06:23:41;;;;;;;34.77;19.77;;;-3.40;99.90;;;;;;6227720;22;36806;-80
2023/02/08 06:26:07;;;;;;;28.80;18.13;;;-3.40;99.90;;;;;;6256711;22;37991;-80
2023/02/08 06:28:33;;;;;;;36.63;19.23;;;-3.40;99.90;;;;;;6242997;22;39452;-79
2023/02/08 06:30:59;;;;;;;35.80;19.53;;;-3.50;99.90;;;;;;6245421;22;38592;-79
2023/02/08 06:33:26;;;;;;;30.83;18.43;;;-3.50;99.90;;;;;;6207474;22;37138;-79
2023/02/08 06:35:52;;;;;;;34.67;19.17;;;-3.50;99.90;;;;;;6216264;22;38162;-79
2023/02/08 06:38:19;;;;;;;30.13;17.77;;;-3.50;99.90;;;;;;6247782;22;38731;-79
2023/02/08 06:40:46;;;;;;;39.77;21.10;;;-3.50;99.90;;;;;;6249740;22;39105;-79
2023/02/08 06:43:13;;;;;;;34.97;19.00;;;-3.50;99.90;;;;;;6219798;22;37861;-79
2023/02/08 06:45:39;;;;;;;37.67;19.60;;;-3.40;99.90;;;;;;6217204;22;36158;-79
2023/02/08 06:48:05;;;;;;;31.87;18.60;;;-3.40;99.90;;;;;;6214108;22;39674;-79
2023/02/08 06:50:31;;;;;;;27.70;17.80;;;-3.40;99.90;;;;;;6213586;22;36716;-78
2023/02/08 06:52:57;;;;;;;32.10;18.47;;;-3.40;99.90;;;;;;6240447;22;38440;-78
2023/02/08 06:55:24;;;;;;;33.80;19.40;;;-3.30;99.90;;;;;;6215669;22;38326;-79
2023/02/08 06:57:53;;;;;;;29.10;18.37;;;-3.30;99.90;;;;;;6247103;22;38455;-79
2023/02/08 07:00:19;;;;;;;33.37;19.13;;;-3.30;99.90;;;;;;6216067;22;38630;-78
2023/02/08 07:02:46;;;;;;;30.70;18.90;;;-3.40;99.90;;;;;;6217344;22;39847;-79
2023/02/08 07:05:13;;;;;;;35.27;19.03;;;-3.40;99.90;;;;;;6239238;22;37541;-78
2023/02/08 07:07:39;;;;;;;34.90;19.33;;;-3.50;99.90;;;;;;6219262;22;39155;-79
2023/02/08 07:10:06;;;;;;;31.80;18.80;;;-3.40;99.90;;;;;;6214881;22;37420;-78
2023/02/08 07:12:33;;;;;;;36.63;19.23;;;-3.50;99.90;;;;;;6217241;22;38910;-79
2023/02/08 07:15:00;;;;;;;31.33;20.13;;;-3.30;99.90;;;;;;6212404;22;38061;-79
2023/02/08 07:17:26;;;;;;;35.00;19.57;;;-3.30;99.90;;;;;;6217138;22;39015;-80
2023/02/08 07:19:52;;;;;;;33.37;19.23;;;-3.30;99.90;;;;;;6216359;22;38899;-80
2023/02/08 07:22:18;;;;;;;35.50;19.00;;;-3.40;99.90;;;;;;6217310;22;37114;-79
2023/02/08 07:24:45;;;;;;;28.00;18.37;;;-3.40;99.90;;;;;;6244281;22;37419;-79
2023/02/08 07:27:12;;;;;;;29.13;17.53;;;-3.30;99.90;;;;;;6221047;22;39567;-79
2023/02/08 07:29:39;;;;;;;35.70;20.83;;;-3.30;99.90;;;;;;6221173;22;38895;-79
2023/02/08 07:32:06;;;;;;;31.90;18.97;;;-3.30;99.90;;;;;;6218207;22;37006;-79
2023/02/08 07:34:35;;;;;;;29.50;18.20;;;-3.30;99.90;;;;;;6239584;22;38454;-79
2023/02/08 07:37:01;;;;;;;30.90;19.00;;;-3.30;99.90;;;;;;6216779;22;40408;-79
2023/02/08 07:39:30;;;;;;;34.17;20.60;;;-3.30;99.90;;;;;;6216752;22;47118;-79
2023/02/08 07:41:57;;;;;;;37.50;21.70;;;-3.30;99.90;;;;;;6249922;22;38293;-79
2023/02/08 07:44:23;;;;;;;38.90;21.80;;;-3.20;99.90;;;;;;6216363;22;39317;-80
2023/02/08 07:46:49;;;;;;;34.70;20.23;;;-3.20;99.90;;;;;;6215127;22;39465;-79
2023/02/08 07:49:16;;;;;;;36.53;20.53;;;-3.00;99.90;;;;;;6206825;22;39002;-80
2023/02/08 07:51:42;;;;;;;37.70;19.90;;;-2.80;99.90;;;;;;6214679;22;37511;-80
2023/02/08 07:54:08;;;;;;;38.77;21.73;;;-2.60;99.90;;;;;;6244110;22;37189;-79
2023/02/08 07:56:34;;;;;;;39.83;22.47;;;-2.40;99.90;;;;;;6242210;22;39127;-79
2023/02/08 07:59:00;;;;;;;32.70;20.87;;;-2.20;99.90;;;;;;6244406;22;38210;-79
2023/02/08 08:01:27;;;;;;;32.97;20.57;;;-2.20;99.90;;;;;;6210692;22;36993;-78
2023/02/08 08:03:53;;;;;;;38.80;23.07;;;-2.10;99.90;;;;;;6210905;22;37045;-79
2023/02/08 08:06:20;;;;;;;33.83;20.53;;;-2.00;99.90;;;;;;6219935;22;37729;-79
2023/02/08 08:08:47;;;;;;;35.40;21.30;;;-1.90;99.90;;;;;;6212611;22;37052;-79
2023/02/08 08:11:14;;;;;;;39.30;22.57;;;-1.80;99.90;;;;;;6245463;22;38790;-78
2023/02/08 08:13:40;;;;;;;42.80;24.20;;;-1.80;99.90;;;;;;6252754;22;38562;-79
2023/02/08 08:16:06;;;;;;;36.23;22.20;;;-1.80;99.90;;;;;;6228647;22;37845;-80
2023/02/08 08:18:33;;;;;;;33.23;21.50;;;-1.70;99.90;;;;;;6219056;22;40211;-78
2023/02/08 08:20:59;;;;;;;35.43;22.83;;;-1.70;99.90;;;;;;6224406;22;37434;-79
2023/02/08 08:23:27;;;;;;;41.80;23.73;;;-1.40;99.90;;;;;;6221335;22;37540;-81
2023/02/08 08:25:54;;;;;;;40.33;23.63;;;-1.40;99.90;;;;;;6226452;22;39161;-79
2023/02/08 08:28:20;;;;;;;39.47;24.43;;;-1.40;99.90;;;;;;6231904;22;37447;-80
2023/02/08 08:30:53;;;;;;;39.20;24.47;;;-1.40;99.90;;;;;;6265702;22;38323;-80
2023/02/08 08:33:21;;;;;;;41.60;24.63;;;-1.30;99.90;;;;;;6237001;22;36544;-82
2023/02/08 08:35:47;;;;;;;43.77;25.17;;;-1.30;99.90;;;;;;6261475;22;39575;-81
2023/02/08 08:38:14;;;;;;;55.80;28.73;;;-1.20;99.90;;;;;;6216547;22;37926;-81
2023/02/08 08:40:40;;;;;;;45.43;27.27;;;-1.20;99.90;;;;;;6208730;22;38976;-81
2023/02/08 08:43:06;;;;;;;44.97;25.60;;;-1.20;99.90;;;;;;6221434;22;36336;-82
2023/02/08 08:45:35;;;;;;;45.30;26.10;;;-1.10;99.90;;;;;;6258281;22;38840;-80
2023/02/08 08:48:03;;;;;;;44.00;25.70;;;-1.00;99.90;;;;;;6232908;22;38388;-82
2023/02/08 08:50:29;;;;;;;39.73;24.53;;;-1.00;99.90;;;;;;6254831;22;48776;-82
2023/02/08 08:52:57;;;;;;;48.70;25.23;;;-0.90;99.90;;;;;;6237753;22;36090;-82
2023/02/08 08:55:23;;;;;;;44.97;26.90;;;-0.80;99.90;;;;;;6228795;22;39365;-82
2023/02/08 08:57:52;;;;;;;42.87;26.27;;;-0.70;99.90;;;;;;6227472;22;37044;-83
2023/02/08 09:00:18;;;;;;;41.53;25.20;;;-0.60;99.90;;;;;;6228172;22;39475;-83
2023/02/08 09:02:44;;;;;;;44.97;26.77;;;-0.40;99.90;;;;;;6222172;22;36173;-82
2023/02/08 09:05:10;;;;;;;38.50;26.33;;;-0.30;99.90;;;;;;6204700;22;38665;-81
2023/02/08 09:07:36;;;;;;;42.80;26.30;;;-0.30;99.90;;;;;;6232823;22;38183;-81
2023/02/08 09:10:03;;;;;;;44.53;25.87;;;-0.30;99.90;;;;;;6197157;22;39044;-81
2023/02/08 09:12:29;;;;;;;39.20;24.97;;;-0.20;99.90;;;;;;6206479;22;36361;-80
2023/02/08 09:14:55;;;;;;;45.33;27.07;;;-0.10;99.90;;;;;;6236873;22;38553;-81
2023/02/08 09:17:21;;;;;;;42.83;25.57;;;-0.10;99.90;;;;;;6205906;22;38121;-80
2023/02/08 09:19:48;;;;;;;43.33;25.80;;;0.00;99.90;;;;;;6238867;22;39196;-81
2023/02/08 09:22:14;;;;;;;40.67;25.90;;;0.10;99.90;;;;;;6200124;22;36340;-81
2023/02/08 09:24:40;;;;;;;44.83;25.60;;;0.20;99.90;;;;;;6211128;22;40811;-81
2023/02/08 09:27:06;;;;;;;38.37;23.10;;;0.30;99.90;;;;;;6202487;22;38737;-80
2023/02/08 09:29:33;;;;;;;44.73;25.30;;;0.30;99.90;;;;;;6211761;22;38593;-81
2023/02/08 09:32:00;;;;;;;45.00;25.43;;;0.40;99.90;;;;;;6212839;22;38047;-83
2023/02/08 09:34:27;;;;;;;36.20;22.83;;;0.50;99.90;;;;;;6211778;22;40250;-81
2023/02/08 09:36:53;;;;;;;35.53;23.70;;;0.50;99.90;;;;;;6203469;22;38590;-82
2023/02/08 09:39:23;;;;;;;36.33;22.97;;;0.50;99.90;;;;;;6213165;22;36903;-81
2023/02/08 09:42:07;;;;;;;35.53;23.97;;;0.60;99.90;;;;;;6212711;22;36913;-81
2023/02/08 09:44:57;;;;;;;36.53;23.63;;;0.60;99.90;;;;;;6240166;22;48634;-81
2023/02/08 09:47:36;;;;;;;37.53;23.37;;;0.70;99.90;;;;;;6210325;22;38811;-81
2023/02/08 09:50:33;;;;;;;38.47;22.83;;;0.80;99.90;;;;;;6213373;22;37838;-82
2023/02/08 09:53:10;;;;;;;32.87;21.67;;;0.90;99.90;;;;;;6214426;22;47264;-80
2023/02/08 09:55:37;;;;;;;44.80;20.87;;;1.00;99.90;;;;;;6211757;22;47053;-81
2023/02/08 09:58:14;;;;;;;33.80;22.73;;;1.10;99.90;;;;;;6240717;22;38679;-82
2023/02/08 10:00:44;;;;;;;33.17;20.20;;;1.10;99.90;;;;;;6216370;22;38611;-81
2023/02/08 10:03:30;;;;;;;37.07;22.60;;;1.20;99.90;;;;;;6216360;22;36352;-81
2023/02/08 10:05:57;;;;;;;33.60;21.10;;;1.20;99.90;;;;;;6223876;22;38969;-81
2023/02/08 10:08:23;;;;;;;33.40;20.90;;;1.30;99.90;;;;;;6218307;22;40178;-82
2023/02/08 10:11:22;;;;;;;32.73;21.23;;;1.40;99.90;;;;;;6246882;22;38598;-82
2023/02/08 10:14:13;;;;;;;37.07;22.63;;;1.50;99.90;;;;;;6213524;22;47378;-82
2023/02/08 10:16:54;;;;;;;31.30;20.73;;;1.50;99.90;;;;;;6246114;22;48894;-82
2023/02/08 10:19:36;;;;;;;34.90;21.13;;;1.50;99.90;;;;;;6241777;22;38985;-82
2023/02/08 10:22:30;;;;;;;36.37;20.73;;;1.60;99.90;;;;;;6218290;22;36858;-83
2023/02/08 10:25:25;;;;;;;30.00;19.63;;;1.60;99.90;;;;;;6222909;22;36651;-81
2023/02/08 10:28:27;;;;;;;35.77;20.87;;;1.70;99.90;;;;;;6214786;22;47036;-82
2023/02/08 10:31:09;;;;;;;33.73;20.40;;;1.80;99.90;;;;;;6213324;22;47149;-80
2023/02/08 10:33:59;;;;;;;33.38;18.95;;;1.90;99.90;;;;;;6215594;22;47145;-81
2023/02/08 10:36:31;;;;;;;31.00;19.97;;;1.90;99.90;;;;;;6215987;22;37768;-81
2023/02/08 10:38:59;;;;;;;27.67;18.50;;;2.00;99.90;;;;;;6218848;22;37939;-80
2023/02/08 10:41:32;;;;;;;27.87;19.87;;;2.10;99.90;;;;;;6222004;22;36934;-79
2023/02/08 10:44:24;;;;;;;31.30;20.67;;;2.20;99.90;;;;;;6215099;22;38464;-81
2023/02/08 10:47:08;;;;;;;29.33;18.83;;;2.30;99.90;;;;;;6203446;22;47807;-80
2023/02/08 10:49:52;;;;;;;29.17;18.93;;;2.50;99.90;;;;;;6227396;22;48049;-80
2023/02/08 10:52:18;;;;;;;26.30;16.80;;;2.70;99.90;;;;;;6212223;22;39718;-81
2023/02/08 10:54:44;;;;;;;28.87;16.83;;;2.70;99.90;;;;;;6239900;22;37847;-79
2023/02/08 10:57:22;;;;;;;28.33;17.43;;;2.80;99.90;;;;;;6210948;22;39069;-81
2023/02/08 10:59:50;;;;;;;25.57;17.17;;;2.80;99.90;;;;;;6216205;22;37864;-81
2023/02/08 11:02:25;;;;;;;22.13;15.33;;;2.90;99.90;;;;;;6209198;22;37204;-79
2023/02/08 11:04:58;;;;;;;27.30;17.23;;;3.10;99.90;;;;;;6239072;22;37673;-79
2023/02/08 11:07:24;;;;;;;22.80;16.42;;;3.10;99.90;;;;;;6199171;22;38098;-79
2023/02/08 11:09:51;;;;;;;26.23;17.00;;;3.20;99.90;;;;;;6219464;22;38695;-81
2023/02/08 11:12:22;;;;;;;23.00;15.13;;;3.30;99.90;;;;;;6219239;22;37335;-80
2023/02/08 11:14:51;;;;;;;24.07;15.83;;;3.40;99.90;;;;;;6213036;22;37324;-80
2023/02/08 11:17:28;;;;;;;26.73;16.47;;;3.50;99.90;;;;;;6208113;22;36450;-79
2023/02/08 11:19:58;;;;;;;26.57;15.53;;;3.50;99.90;;;;;;6235889;22;39435;-79
2023/02/08 11:22:26;;;;;;;24.47;16.13;;;3.60;99.90;;;;;;6209540;22;39390;-79
2023/02/08 11:25:02;;;;;;;22.80;15.60;;;3.60;99.90;;;;;;6238294;22;38465;-79
2023/02/08 11:27:28;;;;;;;24.00;15.27;;;3.70;99.90;;;;;;6209176;22;47692;-78
2023/02/08 11:30:23;;;;;;;21.77;14.80;;;3.70;99.90;;;;;;6228293;22;39729;-79
2023/02/08 11:33:14;;;;;;;23.83;15.00;;;3.80;99.90;;;;;;6183322;22;47249;-79
2023/02/08 11:35:40;;;;;;;18.80;13.10;;;4.00;99.90;;;;;;6214971;22;47174;-80
2023/02/08 11:38:18;;;;;;;22.40;14.03;;;4.00;99.90;;;;;;6212920;22;36057;-81
2023/02/08 11:40:45;;;;;;;22.67;14.57;;;4.10;99.90;;;;;;6214249;22;37074;-79
2023/02/08 11:43:51;;;;;;;23.97;13.50;;;4.20;99.90;;;;;;6219957;22;39459;-79
2023/02/08 11:46:23;;;;;;;23.00;15.03;;;4.40;99.90;;;;;;6189127;22;38097;-79
2023/02/08 11:48:51;;;;;;;20.83;14.13;;;4.40;99.90;;;;;;6237628;22;37506;-79
2023/02/08 11:51:36;;;;;;;22.43;12.97;;;4.50;99.90;;;;;;6207529;22;38912;-80
2023/02/08 11:54:03;;;;;;;21.13;13.80;;;4.60;99.90;;;;;;6241047;22;38394;-81
2023/02/08 11:56:34;;;;;;;20.93;13.90;;;4.60;99.90;;;;;;6217378;22;39228;-80
2023/02/08 11:59:19;;;;;;;21.70;13.77;;;4.60;99.90;;;;;;6221421;22;36513;-80
2023/02/08 12:01:45;;;;;;;18.43;12.60;;;4.70;99.90;;;;;;6217499;22;46969;-81
2023/02/08 12:04:15;;;;;;;19.30;13.60;;;4.70;99.90;;;;;;6217071;22;38138;-80
2023/02/08 12:07:19;;;;;;;20.97;14.00;;;4.80;99.90;;;;;;6216329;22;37982;-79
2023/02/08 12:10:19;;;;;;;25.07;13.57;;;5.00;99.90;;;;;;6188836;22;49188;-79
2023/02/08 12:12:54;;;;;;;18.80;13.20;;;5.10;99.90;;;;;;6215533;22;46669;-80
2023/02/08 12:15:41;;;;;;;20.00;12.97;;;5.20;99.90;;;;;;6212739;22;38499;-80
2023/02/08 12:18:44;;;;;;;20.03;13.43;;;5.30;99.90;;;;;;6193925;22;37138;-80
2023/02/08 12:21:17;;;;;;;;;;;5.40;99.90;;;;;;6238443;22;37417;-80
2023/02/08 12:24:06;;;;;;;18.73;11.90;;;5.40;99.90;;;;;;6243207;22;39799;-81
2023/02/08 12:26:54;;;;;;;20.50;13.83;;;5.50;99.90;;;;;;6218685;22;46747;-80
2023/02/08 12:29:53;;;;;;;20.40;13.63;;;5.70;99.90;;;;;;6248130;22;38070;-80
2023/02/08 12:32:29;;;;;;;19.57;13.33;;;5.70;99.90;;;;;;6243175;22;37504;-80
2023/02/08 12:35:16;;;;;;;19.70;14.40;;;5.70;99.90;;;;;;6222726;22;38808;-81
2023/02/08 12:40:52;;;;;;;22.07;13.67;;;5.70;99.90;;;;;;6247461;22;50042;-80
2023/02/08 12:43:40;;;;;;;20.73;12.73;;;5.60;99.90;;;;;;6244940;22;21613;-80
2023/02/08 12:46:28;;;;;;;20.00;13.43;;;5.70;99.90;;;;;;6221757;22;38694;-81
2023/02/08 12:49:11;;;;;;;21.57;14.07;;;5.90;99.90;;;;;;6247321;22;38560;-81
2023/02/08 12:52:22;;;;;;;22.50;13.73;;;6.00;99.90;;;;;;6195219;22;47083;-81
2023/02/08 12:55:13;;;;;;;21.73;13.20;;;5.80;99.90;;;;;;6190485;22;47902;-81
2023/02/08 12:57:52;;;;;;;17.97;12.47;;;5.80;99.90;;;;;;6246466;22;49063;-81
2023/02/08 13:00:31;;;;;;;20.13;13.07;;;5.90;99.90;;;;;;6227360;22;39893;-80